This is the latest recevied weather packets stored in our database for station/object PY1LEO-13. If no packets are shown the sender has not sent any weather packets the latest 10 day(s).
| Time | Temp. | Humidity | Pressure | Rain* | Wind** | Luminosity | Snow |
|---|---|---|---|---|---|---|---|
| 1778083316 | 28.89° C | 58% | 1019.4 hPa | - | - | - | - |
| 1778083016 | 28.33° C | 62% | 1019.6 hPa | - | - | - | - |
| 1778082716 | 28.89° C | 58% | 1019.7 hPa | - | - | - | - |
| 1778082416 | 30° C | 56% | 1019.7 hPa | - | - | - | - |
| 1778082116 | 30° C | 55% | 1019.8 hPa | - | - | - | - |
| 1778081816 | 28.89° C | 57% | 1019.9 hPa | - | - | - | - |
| 1778081516 | 28.89° C | 58% | 1020 hPa | - | - | - | - |
| 1778081216 | 30° C | 56% | 1020 hPa | - | - | - | - |
| 1778080916 | 29.44° C | 57% | 1020.1 hPa | - | - | - | - |
| 1778080616 | 29.44° C | 57% | 1020.2 hPa | - | - | - | - |
| 1778080316 | 28.89° C | 58% | 1020.2 hPa | - | - | - | - |
| 1778080016 | 28.89° C | 58% | 1020.2 hPa | - | - | - | - |
| 1778079716 | 28.89° C | 58% | 1020.2 hPa | - | - | - | - |
| 1778079416 | 29.44° C | 57% | 1020.3 hPa | - | - | - | - |
| 1778079116 | 28.89° C | 58% | 1020.4 hPa | - | - | - | - |
| 1778078816 | 30° C | 57% | 1020.5 hPa | - | - | - | - |
| 1778078516 | 29.44° C | 57% | 1020.5 hPa | - | - | - | - |
| 1778078216 | 30° C | 56% | 1020.6 hPa | - | - | - | - |
| 1778077916 | 28.89° C | 59% | 1020.7 hPa | - | - | - | - |
| 1778077616 | 29.44° C | 58% | 1020.6 hPa | - | - | - | - |
| 1778077316 | 29.44° C | 58% | 1020.7 hPa | - | - | - | - |
| 1778077016 | 30° C | 57% | 1020.7 hPa | - | - | - | - |
| 1778076716 | 29.44° C | 58% | 1020.9 hPa | - | - | - | - |
| 1778076416 | 30° C | 56% | 1020.9 hPa | - | - | - | - |
| 1778076116 | 29.44° C | 58% | 1021 hPa | - | - | - | - |
* Rain since midnight (hover to see other rain measurements)
** Current wind speed in m/s (hover to see current wind gust speed)